sensor_id;sensor_type;location;lat;lon;timestamp;P1;durP1;ratioP1;P2;durP2;ratioP2
12886;SDS011;6511;49.746;6.094;2023-02-26T00:01:23;19.50;;;7.93;;
12886;SDS011;6511;49.746;6.094;2023-02-26T00:03:51;25.08;;;9.40;;
12886;SDS011;6511;49.746;6.094;2023-02-26T00:06:18;21.60;;;9.25;;
12886;SDS011;6511;49.746;6.094;2023-02-26T00:08:44;18.08;;;8.25;;
12886;SDS011;6511;49.746;6.094;2023-02-26T00:11:11;13.00;;;6.40;;
12886;SDS011;6511;49.746;6.094;2023-02-26T00:13:37;13.88;;;6.90;;
12886;SDS011;6511;49.746;6.094;2023-02-26T00:16:05;17.10;;;7.72;;
12886;SDS011;6511;49.746;6.094;2023-02-26T00:18:39;16.67;;;7.60;;
12886;SDS011;6511;49.746;6.094;2023-02-26T00:21:05;12.23;;;6.57;;
12886;SDS011;6511;49.746;6.094;2023-02-26T00:23:31;15.40;;;7.30;;
12886;SDS011;6511;49.746;6.094;2023-02-26T00:25:57;13.73;;;7.20;;
12886;SDS011;6511;49.746;6.094;2023-02-26T00:28:22;12.73;;;7.07;;
12886;SDS011;6511;49.746;6.094;2023-02-26T00:30:48;11.07;;;5.47;;
12886;SDS011;6511;49.746;6.094;2023-02-26T00:33:14;10.90;;;5.28;;
12886;SDS011;6511;49.746;6.094;2023-02-26T00:35:40;11.33;;;5.23;;
12886;SDS011;6511;49.746;6.094;2023-02-26T00:38:08;11.18;;;4.55;;
12886;SDS011;6511;49.746;6.094;2023-02-26T00:40:42;9.20;;;4.30;;
12886;SDS011;6511;49.746;6.094;2023-02-26T00:45:44;10.40;;;4.40;;
12886;SDS011;6511;49.746;6.094;2023-02-26T00:48:29;12.20;;;5.60;;
12886;SDS011;6511;49.746;6.094;2023-02-26T00:51:20;10.80;;;5.75;;
12886;SDS011;6511;49.746;6.094;2023-02-26T00:53:53;11.18;;;5.38;;
12886;SDS011;6511;49.746;6.094;2023-02-26T00:56:26;11.07;;;5.35;;
12886;SDS011;6511;49.746;6.094;2023-02-26T00:58:51;10.13;;;4.77;;
12886;SDS011;6511;49.746;6.094;2023-02-26T01:01:17;8.82;;;4.20;;
12886;SDS011;6511;49.746;6.094;2023-02-26T01:03:43;10.50;;;5.37;;
12886;SDS011;6511;49.746;6.094;2023-02-26T01:06:09;10.18;;;4.47;;
12886;SDS011;6511;49.746;6.094;2023-02-26T01:08:40;10.02;;;4.85;;
12886;SDS011;6511;49.746;6.094;2023-02-26T01:11:11;13.33;;;6.73;;
12886;SDS011;6511;49.746;6.094;2023-02-26T01:13:37;11.52;;;6.50;;
12886;SDS011;6511;49.746;6.094;2023-02-26T01:16:07;14.88;;;5.80;;
12886;SDS011;6511;49.746;6.094;2023-02-26T01:21:12;21.75;;;9.98;;
12886;SDS011;6511;49.746;6.094;2023-02-26T01:23:44;12.65;;;6.18;;
12886;SDS011;6511;49.746;6.094;2023-02-26T01:26:14;9.20;;;4.30;;
12886;SDS011;6511;49.746;6.094;2023-02-26T01:28:42;9.90;;;4.20;;
12886;SDS011;6511;49.746;6.094;2023-02-26T01:31:10;12.27;;;4.30;;
12886;SDS011;6511;49.746;6.094;2023-02-26T01:33:50;9.75;;;4.38;;
12886;SDS011;6511;49.746;6.094;2023-02-26T01:36:21;8.88;;;4.25;;
12886;SDS011;6511;49.746;6.094;2023-02-26T01:41:48;11.90;;;5.10;;
12886;SDS011;6511;49.746;6.094;2023-02-26T01:47:08;16.70;;;6.53;;
12886;SDS011;6511;49.746;6.094;2023-02-26T01:49:50;10.23;;;4.45;;
12886;SDS011;6511;49.746;6.094;2023-02-26T01:55:17;9.80;;;4.40;;
12886;SDS011;6511;49.746;6.094;2023-02-26T01:57:45;10.52;;;4.00;;
12886;SDS011;6511;49.746;6.094;2023-02-26T02:00:11;8.73;;;3.77;;
12886;SDS011;6511;49.746;6.094;2023-02-26T02:02:38;7.50;;;3.85;;
12886;SDS011;6511;49.746;6.094;2023-02-26T02:05:06;7.70;;;3.83;;
12886;SDS011;6511;49.746;6.094;2023-02-26T02:07:48;8.48;;;3.85;;
12886;SDS011;6511;49.746;6.094;2023-02-26T02:10:14;10.32;;;4.28;;
12886;SDS011;6511;49.746;6.094;2023-02-26T02:12:42;10.03;;;4.17;;
12886;SDS011;6511;49.746;6.094;2023-02-26T02:15:30;10.70;;;3.97;;
12886;SDS011;6511;49.746;6.094;2023-02-26T02:18:02;11.20;;;4.70;;
12886;SDS011;6511;49.746;6.094;2023-02-26T02:32:14;8.80;;;4.80;;
12886;SDS011;6511;49.746;6.094;2023-02-26T02:34:54;10.10;;;4.68;;
12886;SDS011;6511;49.746;6.094;2023-02-26T02:37:36;9.10;;;4.38;;
12886;SDS011;6511;49.746;6.094;2023-02-26T02:42:41;8.48;;;4.50;;
12886;SDS011;6511;49.746;6.094;2023-02-26T02:47:47;11.82;;;4.43;;
12886;SDS011;6511;49.746;6.094;2023-02-26T02:50:21;10.15;;;4.65;;
12886;SDS011;6511;49.746;6.094;2023-02-26T02:52:59;9.63;;;4.23;;
12886;SDS011;6511;49.746;6.094;2023-02-26T02:55:29;8.52;;;4.10;;
12886;SDS011;6511;49.746;6.094;2023-02-26T02:57:59;9.00;;;3.92;;
12886;SDS011;6511;49.746;6.094;2023-02-26T03:00:39;6.90;;;3.40;;
12886;SDS011;6511;49.746;6.094;2023-02-26T03:05:39;10.13;;;3.73;;
12886;SDS011;6511;49.746;6.094;2023-02-26T03:08:06;10.07;;;3.58;;
12886;SDS011;6511;49.746;6.094;2023-02-26T03:10:35;8.10;;;3.50;;
12886;SDS011;6511;49.746;6.094;2023-02-26T03:13:01;7.38;;;3.10;;
12886;SDS011;6511;49.746;6.094;2023-02-26T03:15:50;10.00;;;3.23;;
12886;SDS011;6511;49.746;6.094;2023-02-26T03:18:26;9.02;;;3.40;;
12886;SDS011;6511;49.746;6.094;2023-02-26T03:24:25;7.13;;;3.10;;
12886;SDS011;6511;49.746;6.094;2023-02-26T03:26:56;7.13;;;2.95;;
12886;SDS011;6511;49.746;6.094;2023-02-26T03:32:34;6.63;;;3.33;;
12886;SDS011;6511;49.746;6.094;2023-02-26T03:35:13;6.53;;;2.80;;
12886;SDS011;6511;49.746;6.094;2023-02-26T03:38:02;6.97;;;3.20;;
12886;SDS011;6511;49.746;6.094;2023-02-26T03:40:34;6.03;;;2.88;;
12886;SDS011;6511;49.746;6.094;2023-02-26T03:43:15;6.28;;;3.17;;
12886;SDS011;6511;49.746;6.094;2023-02-26T03:45:46;9.27;;;3.92;;
12886;SDS011;6511;49.746;6.094;2023-02-26T03:48:16;5.18;;;2.75;;
12886;SDS011;6511;49.746;6.094;2023-02-26T03:50:47;6.35;;;3.10;;
12886;SDS011;6511;49.746;6.094;2023-02-26T03:53:16;7.13;;;3.30;;
12886;SDS011;6511;49.746;6.094;2023-02-26T03:55:49;6.75;;;2.85;;
12886;SDS011;6511;49.746;6.094;2023-02-26T03:58:17;6.65;;;2.90;;
12886;SDS011;6511;49.746;6.094;2023-02-26T04:00:43;6.82;;;3.10;;
12886;SDS011;6511;49.746;6.094;2023-02-26T04:05:54;6.30;;;3.55;;
12886;SDS011;6511;49.746;6.094;2023-02-26T04:08:21;8.50;;;3.20;;
12886;SDS011;6511;49.746;6.094;2023-02-26T04:10:51;6.03;;;3.40;;
12886;SDS011;6511;49.746;6.094;2023-02-26T04:13:27;5.68;;;3.40;;
12886;SDS011;6511;49.746;6.094;2023-02-26T04:15:53;6.33;;;3.33;;
12886;SDS011;6511;49.746;6.094;2023-02-26T04:18:19;9.40;;;3.47;;
12886;SDS011;6511;49.746;6.094;2023-02-26T04:20:44;5.43;;;3.10;;
12886;SDS011;6511;49.746;6.094;2023-02-26T04:23:10;6.30;;;3.40;;
12886;SDS011;6511;49.746;6.094;2023-02-26T04:25:36;8.00;;;3.43;;
12886;SDS011;6511;49.746;6.094;2023-02-26T04:28:01;6.72;;;3.40;;
12886;SDS011;6511;49.746;6.094;2023-02-26T04:30:27;6.17;;;3.20;;
12886;SDS011;6511;49.746;6.094;2023-02-26T04:32:52;6.10;;;3.20;;
12886;SDS011;6511;49.746;6.094;2023-02-26T04:35:18;6.87;;;3.63;;
12886;SDS011;6511;49.746;6.094;2023-02-26T04:37:44;7.53;;;3.80;;
12886;SDS011;6511;49.746;6.094;2023-02-26T04:40:09;6.80;;;3.47;;
12886;SDS011;6511;49.746;6.094;2023-02-26T04:42:35;8.25;;;3.50;;
12886;SDS011;6511;49.746;6.094;2023-02-26T04:45:01;5.70;;;3.35;;
12886;SDS011;6511;49.746;6.094;2023-02-26T04:47:27;6.35;;;3.35;;
12886;SDS011;6511;49.746;6.094;2023-02-26T04:49:53;6.87;;;3.70;;
12886;SDS011;6511;49.746;6.094;2023-02-26T04:52:19;6.65;;;3.67;;
12886;SDS011;6511;49.746;6.094;2023-02-26T04:54:44;7.82;;;3.55;;
12886;SDS011;6511;49.746;6.094;2023-02-26T04:57:10;6.30;;;3.67;;
12886;SDS011;6511;49.746;6.094;2023-02-26T04:59:36;8.20;;;3.93;;
12886;SDS011;6511;49.746;6.094;2023-02-26T05:02:03;5.80;;;3.65;;
12886;SDS011;6511;49.746;6.094;2023-02-26T05:04:29;6.75;;;4.00;;
12886;SDS011;6511;49.746;6.094;2023-02-26T05:06:55;9.13;;;4.17;;
12886;SDS011;6511;49.746;6.094;2023-02-26T05:09:21;7.20;;;3.75;;
12886;SDS011;6511;49.746;6.094;2023-02-26T05:11:46;6.83;;;3.80;;
12886;SDS011;6511;49.746;6.094;2023-02-26T05:14:13;7.10;;;3.97;;
12886;SDS011;6511;49.746;6.094;2023-02-26T05:16:39;9.07;;;4.03;;
12886;SDS011;6511;49.746;6.094;2023-02-26T05:19:04;6.77;;;3.90;;
12886;SDS011;6511;49.746;6.094;2023-02-26T05:21:30;6.53;;;3.83;;
12886;SDS011;6511;49.746;6.094;2023-02-26T05:23:56;6.50;;;3.93;;
12886;SDS011;6511;49.746;6.094;2023-02-26T05:26:21;6.88;;;4.30;;
12886;SDS011;6511;49.746;6.094;2023-02-26T05:28:47;5.80;;;4.03;;
12886;SDS011;6511;49.746;6.094;2023-02-26T05:31:13;6.45;;;4.05;;
12886;SDS011;6511;49.746;6.094;2023-02-26T05:33:39;8.32;;;4.85;;
12886;SDS011;6511;49.746;6.094;2023-02-26T05:36:05;6.90;;;4.38;;
12886;SDS011;6511;49.746;6.094;2023-02-26T05:38:31;8.38;;;4.47;;
12886;SDS011;6511;49.746;6.094;2023-02-26T05:40:58;7.55;;;4.20;;
12886;SDS011;6511;49.746;6.094;2023-02-26T05:43:24;7.57;;;4.20;;
12886;SDS011;6511;49.746;6.094;2023-02-26T05:45:50;7.53;;;4.25;;
12886;SDS011;6511;49.746;6.094;2023-02-26T05:48:16;5.88;;;3.90;;
12886;SDS011;6511;49.746;6.094;2023-02-26T05:50:42;8.30;;;4.70;;
12886;SDS011;6511;49.746;6.094;2023-02-26T05:53:07;6.13;;;4.90;;
12886;SDS011;6511;49.746;6.094;2023-02-26T05:55:33;7.10;;;4.60;;
12886;SDS011;6511;49.746;6.094;2023-02-26T05:57:59;6.85;;;4.53;;
12886;SDS011;6511;49.746;6.094;2023-02-26T06:00:24;5.97;;;4.32;;
12886;SDS011;6511;49.746;6.094;2023-02-26T06:02:50;6.60;;;4.40;;
12886;SDS011;6511;49.746;6.094;2023-02-26T06:05:16;7.03;;;4.40;;
12886;SDS011;6511;49.746;6.094;2023-02-26T06:07:41;6.47;;;4.13;;
12886;SDS011;6511;49.746;6.094;2023-02-26T06:10:07;6.13;;;4.25;;
12886;SDS011;6511;49.746;6.094;2023-02-26T06:12:34;7.53;;;4.57;;
12886;SDS011;6511;49.746;6.094;2023-02-26T06:15:00;7.75;;;4.53;;
12886;SDS011;6511;49.746;6.094;2023-02-26T06:17:26;8.13;;;5.00;;
12886;SDS011;6511;49.746;6.094;2023-02-26T06:19:52;8.50;;;5.00;;
12886;SDS011;6511;49.746;6.094;2023-02-26T06:22:18;6.78;;;4.70;;
12886;SDS011;6511;49.746;6.094;2023-02-26T06:24:44;8.15;;;5.05;;
12886;SDS011;6511;49.746;6.094;2023-02-26T06:27:09;7.70;;;5.00;;
12886;SDS011;6511;49.746;6.094;2023-02-26T06:29:35;7.60;;;4.90;;
12886;SDS011;6511;49.746;6.094;2023-02-26T06:32:02;6.57;;;4.63;;
12886;SDS011;6511;49.746;6.094;2023-02-26T06:34:28;6.72;;;4.35;;
12886;SDS011;6511;49.746;6.094;2023-02-26T06:36:53;7.80;;;4.88;;
12886;SDS011;6511;49.746;6.094;2023-02-26T06:39:19;7.77;;;5.13;;
12886;SDS011;6511;49.746;6.094;2023-02-26T06:41:45;8.20;;;5.03;;
12886;SDS011;6511;49.746;6.094;2023-02-26T06:44:10;7.83;;;5.37;;
12886;SDS011;6511;49.746;6.094;2023-02-26T06:46:36;11.40;;;5.68;;
12886;SDS011;6511;49.746;6.094;2023-02-26T06:49:02;7.90;;;5.40;;
12886;SDS011;6511;49.746;6.094;2023-02-26T06:51:28;8.23;;;5.28;;
12886;SDS011;6511;49.746;6.094;2023-02-26T06:53:54;7.68;;;5.28;;
12886;SDS011;6511;49.746;6.094;2023-02-26T06:56:20;8.97;;;5.73;;
12886;SDS011;6511;49.746;6.094;2023-02-26T06:58:47;8.27;;;5.97;;
12886;SDS011;6511;49.746;6.094;2023-02-26T07:01:12;9.00;;;6.07;;
12886;SDS011;6511;49.746;6.094;2023-02-26T07:03:38;9.63;;;5.90;;
12886;SDS011;6511;49.746;6.094;2023-02-26T07:06:04;7.97;;;5.70;;
12886;SDS011;6511;49.746;6.094;2023-02-26T07:08:34;10.38;;;6.03;;
12886;SDS011;6511;49.746;6.094;2023-02-26T07:10:59;10.73;;;5.90;;
12886;SDS011;6511;49.746;6.094;2023-02-26T07:13:25;9.43;;;5.77;;
12886;SDS011;6511;49.746;6.094;2023-02-26T07:15:51;8.93;;;5.90;;
12886;SDS011;6511;49.746;6.094;2023-02-26T07:18:17;8.27;;;5.40;;
12886;SDS011;6511;49.746;6.094;2023-02-26T07:20:42;8.57;;;5.53;;
12886;SDS011;6511;49.746;6.094;2023-02-26T07:23:09;10.43;;;5.78;;
12886;SDS011;6511;49.746;6.094;2023-02-26T07:25:35;9.18;;;5.35;;
12886;SDS011;6511;49.746;6.094;2023-02-26T07:28:01;7.38;;;5.25;;
12886;SDS011;6511;49.746;6.094;2023-02-26T07:30:27;7.18;;;5.10;;
12886;SDS011;6511;49.746;6.094;2023-02-26T07:32:53;7.88;;;5.05;;
12886;SDS011;6511;49.746;6.094;2023-02-26T07:35:19;6.40;;;4.30;;
12886;SDS011;6511;49.746;6.094;2023-02-26T07:37:44;6.20;;;4.35;;
12886;SDS011;6511;49.746;6.094;2023-02-26T07:40:10;5.93;;;4.40;;
12886;SDS011;6511;49.746;6.094;2023-02-26T07:42:36;7.23;;;3.93;;
12886;SDS011;6511;49.746;6.094;2023-02-26T07:45:02;6.47;;;3.90;;
12886;SDS011;6511;49.746;6.094;2023-02-26T07:47:28;5.72;;;3.95;;
12886;SDS011;6511;49.746;6.094;2023-02-26T07:49:54;5.70;;;3.72;;
12886;SDS011;6511;49.746;6.094;2023-02-26T07:52:20;5.78;;;3.60;;
12886;SDS011;6511;49.746;6.094;2023-02-26T07:54:47;7.32;;;4.20;;
12886;SDS011;6511;49.746;6.094;2023-02-26T07:57:12;5.80;;;3.70;;
12886;SDS011;6511;49.746;6.094;2023-02-26T07:59:38;7.05;;;3.72;;
12886;SDS011;6511;49.746;6.094;2023-02-26T08:02:04;4.63;;;3.80;;
12886;SDS011;6511;49.746;6.094;2023-02-26T08:04:30;5.72;;;3.47;;
12886;SDS011;6511;49.746;6.094;2023-02-26T08:06:57;5.35;;;3.63;;
12886;SDS011;6511;49.746;6.094;2023-02-26T08:09:26;5.03;;;3.53;;
12886;SDS011;6511;49.746;6.094;2023-02-26T08:11:52;5.57;;;4.20;;
12886;SDS011;6511;49.746;6.094;2023-02-26T08:14:17;6.30;;;3.53;;
12886;SDS011;6511;49.746;6.094;2023-02-26T08:16:43;6.35;;;3.50;;
12886;SDS011;6511;49.746;6.094;2023-02-26T08:19:09;5.17;;;3.20;;
12886;SDS011;6511;49.746;6.094;2023-02-26T08:21:34;5.63;;;3.60;;
12886;SDS011;6511;49.746;6.094;2023-02-26T08:24:00;5.67;;;3.43;;
12886;SDS011;6511;49.746;6.094;2023-02-26T08:26:26;3.88;;;2.90;;
12886;SDS011;6511;49.746;6.094;2023-02-26T08:28:52;5.33;;;2.90;;
12886;SDS011;6511;49.746;6.094;2023-02-26T08:31:17;4.60;;;2.92;;
12886;SDS011;6511;49.746;6.094;2023-02-26T08:33:43;5.07;;;3.00;;
12886;SDS011;6511;49.746;6.094;2023-02-26T08:36:09;4.82;;;2.85;;
12886;SDS011;6511;49.746;6.094;2023-02-26T08:38:35;4.50;;;3.00;;
12886;SDS011;6511;49.746;6.094;2023-02-26T08:41:01;4.45;;;2.50;;
12886;SDS011;6511;49.746;6.094;2023-02-26T08:43:27;4.63;;;2.80;;
12886;SDS011;6511;49.746;6.094;2023-02-26T08:45:55;4.22;;;2.60;;
12886;SDS011;6511;49.746;6.094;2023-02-26T08:48:22;5.20;;;2.60;;
12886;SDS011;6511;49.746;6.094;2023-02-26T08:50:48;4.35;;;2.30;;
12886;SDS011;6511;49.746;6.094;2023-02-26T08:53:15;4.27;;;2.30;;
12886;SDS011;6511;49.746;6.094;2023-02-26T08:55:40;3.97;;;2.10;;
12886;SDS011;6511;49.746;6.094;2023-02-26T08:58:08;3.85;;;2.30;;
12886;SDS011;6511;49.746;6.094;2023-02-26T09:00:34;3.10;;;2.22;;
12886;SDS011;6511;49.746;6.094;2023-02-26T09:03:00;4.47;;;2.20;;
12886;SDS011;6511;49.746;6.094;2023-02-26T09:05:26;5.35;;;2.50;;
12886;SDS011;6511;49.746;6.094;2023-02-26T09:07:51;2.97;;;2.00;;
12886;SDS011;6511;49.746;6.094;2023-02-26T09:10:17;2.88;;;2.10;;
12886;SDS011;6511;49.746;6.094;2023-02-26T09:12:43;3.10;;;1.90;;
12886;SDS011;6511;49.746;6.094;2023-02-26T09:15:09;2.83;;;1.80;;
12886;SDS011;6511;49.746;6.094;2023-02-26T09:17:35;2.83;;;1.60;;
12886;SDS011;6511;49.746;6.094;2023-02-26T09:20:02;3.53;;;1.77;;
12886;SDS011;6511;49.746;6.094;2023-02-26T09:22:28;2.35;;;1.60;;
12886;SDS011;6511;49.746;6.094;2023-02-26T09:24:54;2.93;;;1.50;;
12886;SDS011;6511;49.746;6.094;2023-02-26T09:27:19;1.95;;;1.45;;
12886;SDS011;6511;49.746;6.094;2023-02-26T09:29:45;3.90;;;1.70;;
12886;SDS011;6511;49.746;6.094;2023-02-26T09:32:10;3.03;;;1.77;;
12886;SDS011;6511;49.746;6.094;2023-02-26T09:34:36;3.30;;;1.38;;
12886;SDS011;6511;49.746;6.094;2023-02-26T09:37:03;3.15;;;1.50;;
12886;SDS011;6511;49.746;6.094;2023-02-26T09:39:30;3.40;;;1.63;;
12886;SDS011;6511;49.746;6.094;2023-02-26T09:41:58;3.53;;;1.57;;
12886;SDS011;6511;49.746;6.094;2023-02-26T09:44:32;2.95;;;1.58;;
12886;SDS011;6511;49.746;6.094;2023-02-26T09:47:01;2.47;;;1.50;;
12886;SDS011;6511;49.746;6.094;2023-02-26T09:55:07;2.20;;;1.40;;
12886;SDS011;6511;49.746;6.094;2023-02-26T09:57:39;1.88;;;1.27;;
12886;SDS011;6511;49.746;6.094;2023-02-26T10:03:22;2.92;;;1.40;;
12886;SDS011;6511;49.746;6.094;2023-02-26T10:14:11;3.97;;;1.40;;
12886;SDS011;6511;49.746;6.094;2023-02-26T10:16:43;2.35;;;1.20;;
12886;SDS011;6511;49.746;6.094;2023-02-26T10:19:15;1.65;;;1.00;;
12886;SDS011;6511;49.746;6.094;2023-02-26T10:21:45;2.10;;;1.20;;
12886;SDS011;6511;49.746;6.094;2023-02-26T10:27:05;2.05;;;1.27;;
12886;SDS011;6511;49.746;6.094;2023-02-26T10:29:42;2.35;;;1.20;;
12886;SDS011;6511;49.746;6.094;2023-02-26T10:34:57;2.08;;;1.10;;
12886;SDS011;6511;49.746;6.094;2023-02-26T10:46:06;1.65;;;1.00;;
12886;SDS011;6511;49.746;6.094;2023-02-26T10:48:56;1.73;;;1.02;;
12886;SDS011;6511;49.746;6.094;2023-02-26T10:51:24;2.83;;;1.00;;
12886;SDS011;6511;49.746;6.094;2023-02-26T10:56:45;1.35;;;0.95;;
12886;SDS011;6511;49.746;6.094;2023-02-26T10:59:11;1.10;;;1.00;;
12886;SDS011;6511;49.746;6.094;2023-02-26T11:01:37;1.73;;;0.80;;
12886;SDS011;6511;49.746;6.094;2023-02-26T11:04:07;2.00;;;0.90;;
12886;SDS011;6511;49.746;6.094;2023-02-26T11:06:34;1.33;;;0.80;;
12886;SDS011;6511;49.746;6.094;2023-02-26T11:09:06;1.17;;;0.77;;
12886;SDS011;6511;49.746;6.094;2023-02-26T11:14:38;2.30;;;0.80;;
12886;SDS011;6511;49.746;6.094;2023-02-26T11:17:15;1.40;;;0.80;;
12886;SDS011;6511;49.746;6.094;2023-02-26T11:19:49;1.75;;;0.90;;
12886;SDS011;6511;49.746;6.094;2023-02-26T11:22:20;1.90;;;0.80;;
12886;SDS011;6511;49.746;6.094;2023-02-26T11:24:47;1.23;;;0.90;;
12886;SDS011;6511;49.746;6.094;2023-02-26T11:27:17;1.17;;;0.80;;
12886;SDS011;6511;49.746;6.094;2023-02-26T11:29:53;0.80;;;0.80;;
12886;SDS011;6511;49.746;6.094;2023-02-26T11:32:31;4.70;;;2.67;;
12886;SDS011;6511;49.746;6.094;2023-02-26T11:34:59;2.33;;;0.80;;
12886;SDS011;6511;49.746;6.094;2023-02-26T11:37:29;1.20;;;0.87;;
12886;SDS011;6511;49.746;6.094;2023-02-26T11:39:59;2.33;;;0.90;;
12886;SDS011;6511;49.746;6.094;2023-02-26T11:42:35;1.33;;;0.88;;
12886;SDS011;6511;49.746;6.094;2023-02-26T11:45:04;1.60;;;1.00;;
12886;SDS011;6511;49.746;6.094;2023-02-26T11:47:31;1.88;;;1.10;;
12886;SDS011;6511;49.746;6.094;2023-02-26T11:50:01;1.25;;;1.00;;
12886;SDS011;6511;49.746;6.094;2023-02-26T11:52:35;1.07;;;0.87;;
12886;SDS011;6511;49.746;6.094;2023-02-26T11:57:54;2.25;;;0.93;;
12886;SDS011;6511;49.746;6.094;2023-02-26T12:00:36;1.52;;;0.95;;
12886;SDS011;6511;49.746;6.094;2023-02-26T12:03:03;1.55;;;1.10;;
12886;SDS011;6511;49.746;6.094;2023-02-26T12:05:32;1.40;;;1.00;;
12886;SDS011;6511;49.746;6.094;2023-02-26T12:07:59;2.10;;;1.10;;
12886;SDS011;6511;49.746;6.094;2023-02-26T12:10:29;1.95;;;0.98;;
12886;SDS011;6511;49.746;6.094;2023-02-26T12:18:31;1.80;;;1.00;;
12886;SDS011;6511;49.746;6.094;2023-02-26T12:24:11;1.07;;;0.90;;
12886;SDS011;6511;49.746;6.094;2023-02-26T12:29:49;2.10;;;1.00;;
12886;SDS011;6511;49.746;6.094;2023-02-26T12:32:46;1.43;;;1.00;;
12886;SDS011;6511;49.746;6.094;2023-02-26T12:35:44;1.48;;;1.10;;
12886;SDS011;6511;49.746;6.094;2023-02-26T12:38:19;2.72;;;1.05;;
12886;SDS011;6511;49.746;6.094;2023-02-26T13:04:54;2.03;;;1.02;;
12886;SDS011;6511;49.746;6.094;2023-02-26T13:07:46;2.53;;;1.30;;
12886;SDS011;6511;49.746;6.094;2023-02-26T13:10:38;1.83;;;1.17;;
12886;SDS011;6511;49.746;6.094;2023-02-26T13:13:10;1.97;;;1.03;;
12886;SDS011;6511;49.746;6.094;2023-02-26T13:15:50;1.53;;;1.07;;
12886;SDS011;6511;49.746;6.094;2023-02-26T13:23:41;2.03;;;1.30;;
12886;SDS011;6511;49.746;6.094;2023-02-26T13:26:14;1.63;;;1.10;;
12886;SDS011;6511;49.746;6.094;2023-02-26T13:28:56;2.40;;;1.10;;
12886;SDS011;6511;49.746;6.094;2023-02-26T13:34:40;1.92;;;1.08;;
12886;SDS011;6511;49.746;6.094;2023-02-26T13:37:18;1.88;;;1.10;;
12886;SDS011;6511;49.746;6.094;2023-02-26T14:01:34;1.63;;;0.90;;
12886;SDS011;6511;49.746;6.094;2023-02-26T14:06:50;1.53;;;1.03;;
12886;SDS011;6511;49.746;6.094;2023-02-26T14:14:43;1.95;;;1.10;;
12886;SDS011;6511;49.746;6.094;2023-02-26T14:17:38;1.80;;;1.00;;
12886;SDS011;6511;49.746;6.094;2023-02-26T14:20:25;1.00;;;0.90;;
12886;SDS011;6511;49.746;6.094;2023-02-26T14:25:37;1.67;;;1.00;;
12886;SDS011;6511;49.746;6.094;2023-02-26T14:33:56;2.05;;;0.88;;
12886;SDS011;6511;49.746;6.094;2023-02-26T14:36:47;1.20;;;0.80;;
12886;SDS011;6511;49.746;6.094;2023-02-26T14:39:23;1.88;;;0.90;;
12886;SDS011;6511;49.746;6.094;2023-02-26T14:42:15;1.83;;;1.00;;
12886;SDS011;6511;49.746;6.094;2023-02-26T14:44:48;2.22;;;0.95;;
12886;SDS011;6511;49.746;6.094;2023-02-26T14:47:17;1.55;;;0.90;;
12886;SDS011;6511;49.746;6.094;2023-02-26T14:49:44;1.42;;;0.88;;
12886;SDS011;6511;49.746;6.094;2023-02-26T14:57:53;1.75;;;0.82;;
12886;SDS011;6511;49.746;6.094;2023-02-26T15:00:42;1.67;;;0.80;;
12886;SDS011;6511;49.746;6.094;2023-02-26T15:18:57;1.45;;;0.70;;
12886;SDS011;6511;49.746;6.094;2023-02-26T15:24:52;1.65;;;0.85;;
12886;SDS011;6511;49.746;6.094;2023-02-26T15:27:18;2.38;;;0.80;;
12886;SDS011;6511;49.746;6.094;2023-02-26T15:29:45;1.70;;;0.80;;
12886;SDS011;6511;49.746;6.094;2023-02-26T15:34:46;1.83;;;0.70;;
12886;SDS011;6511;49.746;6.094;2023-02-26T15:37:19;1.02;;;0.80;;
12886;SDS011;6511;49.746;6.094;2023-02-26T15:39:49;1.45;;;0.80;;
12886;SDS011;6511;49.746;6.094;2023-02-26T15:42:16;0.98;;;0.65;;
12886;SDS011;6511;49.746;6.094;2023-02-26T15:44:44;1.02;;;0.70;;
12886;SDS011;6511;49.746;6.094;2023-02-26T15:47:11;1.40;;;0.80;;
12886;SDS011;6511;49.746;6.094;2023-02-26T15:49:40;1.10;;;0.68;;
12886;SDS011;6511;49.746;6.094;2023-02-26T15:52:11;1.40;;;0.90;;
12886;SDS011;6511;49.746;6.094;2023-02-26T15:54:40;1.27;;;0.80;;
12886;SDS011;6511;49.746;6.094;2023-02-26T15:57:09;1.13;;;0.65;;
12886;SDS011;6511;49.746;6.094;2023-02-26T15:59:38;0.80;;;0.65;;
12886;SDS011;6511;49.746;6.094;2023-02-26T16:02:10;2.25;;;0.70;;
12886;SDS011;6511;49.746;6.094;2023-02-26T16:04:40;1.27;;;0.73;;
12886;SDS011;6511;49.746;6.094;2023-02-26T16:07:08;2.53;;;0.80;;
12886;SDS011;6511;49.746;6.094;2023-02-26T16:09:38;1.27;;;0.73;;
12886;SDS011;6511;49.746;6.094;2023-02-26T16:12:19;0.98;;;0.70;;
12886;SDS011;6511;49.746;6.094;2023-02-26T16:14:49;1.08;;;0.77;;
12886;SDS011;6511;49.746;6.094;2023-02-26T16:17:31;1.35;;;0.63;;
12886;SDS011;6511;49.746;6.094;2023-02-26T16:20:01;0.77;;;0.68;;
12886;SDS011;6511;49.746;6.094;2023-02-26T16:22:31;1.23;;;0.70;;
12886;SDS011;6511;49.746;6.094;2023-02-26T16:25:01;1.43;;;0.80;;
12886;SDS011;6511;49.746;6.094;2023-02-26T16:27:32;2.88;;;1.13;;
12886;SDS011;6511;49.746;6.094;2023-02-26T16:30:00;1.77;;;0.77;;
12886;SDS011;6511;49.746;6.094;2023-02-26T16:32:28;1.58;;;0.90;;
12886;SDS011;6511;49.746;6.094;2023-02-26T16:35:07;1.45;;;0.95;;
12886;SDS011;6511;49.746;6.094;2023-02-26T16:37:44;2.58;;;0.95;;
12886;SDS011;6511;49.746;6.094;2023-02-26T16:40:27;1.55;;;0.90;;
12886;SDS011;6511;49.746;6.094;2023-02-26T16:42:59;1.23;;;0.93;;
12886;SDS011;6511;49.746;6.094;2023-02-26T16:51:12;1.15;;;0.80;;
12886;SDS011;6511;49.746;6.094;2023-02-26T16:56:14;2.00;;;0.85;;
12886;SDS011;6511;49.746;6.094;2023-02-26T16:58:46;1.63;;;0.90;;
12886;SDS011;6511;49.746;6.094;2023-02-26T17:01:17;2.67;;;0.90;;
12886;SDS011;6511;49.746;6.094;2023-02-26T17:03:45;1.50;;;0.90;;
12886;SDS011;6511;49.746;6.094;2023-02-26T17:06:20;2.00;;;0.90;;
12886;SDS011;6511;49.746;6.094;2023-02-26T17:08:49;1.70;;;0.90;;
12886;SDS011;6511;49.746;6.094;2023-02-26T17:14:36;1.33;;;0.90;;
12886;SDS011;6511;49.746;6.094;2023-02-26T17:16:50;1.83;;;1.10;;
12886;SDS011;6511;49.746;6.094;2023-02-26T17:19:16;1.30;;;0.90;;
12886;SDS011;6511;49.746;6.094;2023-02-26T17:21:46;2.40;;;1.10;;
12886;SDS011;6511;49.746;6.094;2023-02-26T17:24:18;1.75;;;1.08;;
12886;SDS011;6511;49.746;6.094;2023-02-26T17:26:46;3.00;;;1.10;;
12886;SDS011;6511;49.746;6.094;2023-02-26T17:29:21;1.90;;;1.00;;
12886;SDS011;6511;49.746;6.094;2023-02-26T17:31:51;2.20;;;1.00;;
12886;SDS011;6511;49.746;6.094;2023-02-26T17:34:18;2.23;;;1.03;;
12886;SDS011;6511;49.746;6.094;2023-02-26T17:36:45;1.50;;;1.00;;
12886;SDS011;6511;49.746;6.094;2023-02-26T17:39:11;1.45;;;1.10;;
12886;SDS011;6511;49.746;6.094;2023-02-26T17:41:37;2.53;;;1.00;;
12886;SDS011;6511;49.746;6.094;2023-02-26T17:44:06;1.25;;;0.90;;
12886;SDS011;6511;49.746;6.094;2023-02-26T17:46:32;2.47;;;1.00;;
12886;SDS011;6511;49.746;6.094;2023-02-26T17:48:57;1.03;;;0.90;;
12886;SDS011;6511;49.746;6.094;2023-02-26T17:51:23;2.28;;;1.00;;
12886;SDS011;6511;49.746;6.094;2023-02-26T17:53:51;2.53;;;1.10;;
12886;SDS011;6511;49.746;6.094;2023-02-26T17:56:23;2.65;;;1.00;;
12886;SDS011;6511;49.746;6.094;2023-02-26T17:58:54;2.30;;;1.10;;
12886;SDS011;6511;49.746;6.094;2023-02-26T18:01:22;1.55;;;1.00;;
12886;SDS011;6511;49.746;6.094;2023-02-26T18:03:48;1.80;;;1.10;;
12886;SDS011;6511;49.746;6.094;2023-02-26T18:06:14;1.98;;;1.25;;
12886;SDS011;6511;49.746;6.094;2023-02-26T18:08:41;1.52;;;1.00;;
12886;SDS011;6511;49.746;6.094;2023-02-26T18:11:08;1.70;;;1.00;;
12886;SDS011;6511;49.746;6.094;2023-02-26T18:13:36;1.60;;;0.97;;
12886;SDS011;6511;49.746;6.094;2023-02-26T18:16:01;1.30;;;1.00;;
12886;SDS011;6511;49.746;6.094;2023-02-26T18:18:28;2.10;;;1.00;;
12886;SDS011;6511;49.746;6.094;2023-02-26T18:20:55;2.28;;;1.27;;
12886;SDS011;6511;49.746;6.094;2023-02-26T18:23:21;2.35;;;1.13;;
12886;SDS011;6511;49.746;6.094;2023-02-26T18:25:48;1.80;;;1.20;;
12886;SDS011;6511;49.746;6.094;2023-02-26T18:28:16;3.05;;;1.33;;
12886;SDS011;6511;49.746;6.094;2023-02-26T18:30:47;3.75;;;1.40;;
12886;SDS011;6511;49.746;6.094;2023-02-26T18:33:14;1.70;;;1.38;;
12886;SDS011;6511;49.746;6.094;2023-02-26T18:35:49;1.95;;;1.30;;
12886;SDS011;6511;49.746;6.094;2023-02-26T18:38:19;1.98;;;1.45;;